createdAt,value
2022-10-29T00:01:22.933Z,4.82
2022-10-29T00:03:58.720Z,5.13
2022-10-29T00:06:25.399Z,4.68
2022-10-29T00:08:52.021Z,6.68
2022-10-29T00:11:21.270Z,5.30
2022-10-29T00:13:52.652Z,3.97
2022-10-29T00:16:21.802Z,4.72
2022-10-29T00:18:48.940Z,4.30
2022-10-29T00:21:18.593Z,4.32
2022-10-29T00:23:45.631Z,4.03
2022-10-29T00:26:13.479Z,4.05
2022-10-29T00:28:40.151Z,3.63
2022-10-29T00:31:24.289Z,3.83
2022-10-29T00:33:53.170Z,4.78
2022-10-29T00:36:22.781Z,3.65
2022-10-29T00:38:50.057Z,6.85
2022-10-29T00:41:19.685Z,7.20
2022-10-29T00:44:15.364Z,7.40
2022-10-29T00:46:55.489Z,3.72
2022-10-29T00:49:24.792Z,4.10
2022-10-29T00:51:52.460Z,4.85
2022-10-29T00:54:19.203Z,4.32
2022-10-29T00:56:51.846Z,4.95
2022-10-29T00:59:18.950Z,4.35
2022-10-29T01:01:48.579Z,4.88
2022-10-29T01:04:17.533Z,4.15
2022-10-29T01:06:44.933Z,4.00
2022-10-29T01:09:11.595Z,4.82
2022-10-29T01:11:55.022Z,4.60
2022-10-29T01:14:59.837Z,5.22
2022-10-29T01:17:56.587Z,3.45
2022-10-29T01:20:41.099Z,4.68
2022-10-29T01:24:02.123Z,4.18
2022-10-29T01:26:49.106Z,4.05
2022-10-29T01:29:53.189Z,3.60
2022-10-29T01:32:41.511Z,5.35
2022-10-29T01:35:22.590Z,6.90
2022-10-29T01:38:07.818Z,4.88
2022-10-29T01:40:34.326Z,3.83
2022-10-29T01:43:12.190Z,6.13
2022-10-29T01:46:07.880Z,6.97
2022-10-29T01:48:37.405Z,3.75
2022-10-29T01:51:12.038Z,4.05
2022-10-29T01:53:39.317Z,5.60
2022-10-29T01:56:06.324Z,3.80
2022-10-29T01:58:35.951Z,4.40
2022-10-29T02:01:24.113Z,4.57
2022-10-29T02:04:04.512Z,3.78
2022-10-29T02:06:48.738Z,4.60
2022-10-29T02:09:31.711Z,4.20
2022-10-29T02:12:17.368Z,4.07
2022-10-29T02:15:07.694Z,3.70
2022-10-29T02:17:35.360Z,5.15
2022-10-29T02:20:07.617Z,5.72
2022-10-29T02:22:34.469Z,3.50
2022-10-29T02:25:01.644Z,4.22
2022-10-29T02:27:28.311Z,4.22
2022-10-29T02:29:54.904Z,4.55
2022-10-29T02:32:21.743Z,4.65
2022-10-29T02:34:48.376Z,4.70
2022-10-29T02:37:15.024Z,4.22
2022-10-29T02:39:41.597Z,5.65
2022-10-29T02:42:08.236Z,4.53
2022-10-29T02:44:34.955Z,3.83
2022-10-29T02:47:01.601Z,4.22
2022-10-29T02:49:28.411Z,4.65
2022-10-29T02:51:55.075Z,4.47
2022-10-29T02:54:21.658Z,3.80
2022-10-29T02:56:48.332Z,4.60
2022-10-29T02:59:14.950Z,4.55
2022-10-29T03:01:41.663Z,4.60
2022-10-29T03:04:08.483Z,4.68
2022-10-29T03:06:35.108Z,4.05
2022-10-29T03:09:01.704Z,5.95
2022-10-29T03:11:28.333Z,3.80
2022-10-29T03:13:54.971Z,5.88
2022-10-29T03:16:21.780Z,3.80
2022-10-29T03:18:48.431Z,4.30
2022-10-29T03:21:15.074Z,3.75
2022-10-29T03:23:41.688Z,4.60
2022-10-29T03:26:11.049Z,5.07
2022-10-29T03:28:38.640Z,6.03
2022-10-29T03:31:05.458Z,6.50
2022-10-29T03:33:32.058Z,6.53
2022-10-29T03:36:00.037Z,4.35
2022-10-29T03:38:27.121Z,5.20
2022-10-29T03:40:54.132Z,4.53
2022-10-29T03:43:21.181Z,5.20
2022-10-29T03:45:55.144Z,7.78
2022-10-29T03:48:23.726Z,5.15
2022-10-29T03:50:57.201Z,5.18
2022-10-29T03:53:24.826Z,6.18
2022-10-29T03:55:53.123Z,4.53
2022-10-29T03:58:20.332Z,4.90
2022-10-29T04:01:13.401Z,4.65
2022-10-29T04:03:42.338Z,4.53
2022-10-29T04:06:12.306Z,4.90
2022-10-29T04:08:39.292Z,4.15
2022-10-29T04:11:05.987Z,5.97
2022-10-29T04:13:32.641Z,3.90
2022-10-29T04:15:59.231Z,5.47
2022-10-29T04:18:25.933Z,6.10
2022-10-29T04:29:13.774Z,8.77
2022-10-29T04:31:40.420Z,6.55
2022-10-29T04:34:07.061Z,5.25
2022-10-29T04:36:33.700Z,6.13
2022-10-29T04:39:00.356Z,4.88
2022-10-29T04:41:26.965Z,4.90
2022-10-29T04:43:53.577Z,4.80
2022-10-29T04:46:20.222Z,4.05
2022-10-29T04:48:46.899Z,4.32
2022-10-29T04:51:25.484Z,5.38
2022-10-29T04:53:52.138Z,4.65
2022-10-29T04:56:18.991Z,5.15
2022-10-29T04:58:46.623Z,4.53
2022-10-29T05:01:13.472Z,5.85
2022-10-29T05:03:40.232Z,5.78
2022-10-29T05:06:07.644Z,6.68
2022-10-29T05:08:34.486Z,4.85
2022-10-29T05:11:05.408Z,3.97
2022-10-29T05:13:32.939Z,6.00
2022-10-29T05:15:59.675Z,4.88
2022-10-29T05:18:26.553Z,5.30
2022-10-29T05:20:57.462Z,6.15
2022-10-29T05:23:24.572Z,5.35
2022-10-29T05:25:52.350Z,6.53
2022-10-29T05:28:22.195Z,4.97
2022-10-29T05:30:50.569Z,6.53
2022-10-29T05:33:19.956Z,5.75
2022-10-29T05:35:47.261Z,4.15
2022-10-29T05:38:14.715Z,6.07
2022-10-29T05:40:42.835Z,4.72
2022-10-29T05:43:09.600Z,6.40
2022-10-29T05:45:36.227Z,4.25
2022-10-29T05:48:04.448Z,5.20
2022-10-29T05:50:32.363Z,5.00
2022-10-29T05:53:01.224Z,7.60
2022-10-29T05:55:29.418Z,4.80
2022-10-29T05:58:01.441Z,5.05
2022-10-29T06:00:29.935Z,4.38
2022-10-29T06:02:57.018Z,6.57
2022-10-29T06:05:24.095Z,4.10
2022-10-29T06:08:01.234Z,6.28
2022-10-29T06:10:29.722Z,4.55
2022-10-29T06:12:56.584Z,4.30
2022-10-29T06:15:23.312Z,3.83
2022-10-29T06:17:50.493Z,3.60
2022-10-29T06:20:20.906Z,3.35
2022-10-29T06:22:48.210Z,3.55
2022-10-29T06:25:14.900Z,3.15
2022-10-29T06:27:41.514Z,4.03
2022-10-29T06:30:08.794Z,5.97
2022-10-29T06:32:35.411Z,4.10
2022-10-29T06:35:02.063Z,5.22
2022-10-29T06:37:29.737Z,4.82
2022-10-29T06:39:56.354Z,4.95
2022-10-29T06:42:22.973Z,5.88
2022-10-29T06:44:49.616Z,5.28
2022-10-29T06:47:16.226Z,4.72
2022-10-29T06:49:42.846Z,4.38
2022-10-29T06:52:09.552Z,4.07
2022-10-29T06:54:37.651Z,7.18
2022-10-29T06:57:04.273Z,5.60
2022-10-29T06:59:30.891Z,3.92
2022-10-29T07:01:57.561Z,3.85
2022-10-29T07:04:24.422Z,5.35
2022-10-29T07:06:51.143Z,3.67
2022-10-29T07:09:17.754Z,3.63
2022-10-29T07:11:44.472Z,3.22
2022-10-29T07:14:11.143Z,3.58
2022-10-29T07:16:37.860Z,3.45
2022-10-29T07:19:04.995Z,4.00
2022-10-29T07:21:31.896Z,3.92
2022-10-29T07:23:58.689Z,3.70
2022-10-29T07:26:25.394Z,3.85
2022-10-29T07:28:57.052Z,4.30
2022-10-29T07:31:23.821Z,3.90
2022-10-29T07:33:50.451Z,2.35
2022-10-29T07:36:17.106Z,1.90
2022-10-29T07:38:43.684Z,1.50
2022-10-29T07:41:10.303Z,1.30
2022-10-29T07:43:36.860Z,1.40
2022-10-29T07:46:12.164Z,1.52
2022-10-29T07:48:38.986Z,2.15
2022-10-29T07:51:06.580Z,1.65
2022-10-29T07:53:33.241Z,2.00
2022-10-29T07:55:59.945Z,1.23
2022-10-29T07:58:26.664Z,1.17
2022-10-29T08:00:54.048Z,1.02
2022-10-29T08:03:20.970Z,1.33
2022-10-29T08:05:56.420Z,1.17
2022-10-29T08:08:23.534Z,1.55
2022-10-29T08:10:50.183Z,1.17
2022-10-29T08:13:16.845Z,1.13
2022-10-29T08:15:46.712Z,1.33
2022-10-29T08:18:17.737Z,1.48
2022-10-29T08:20:45.296Z,1.83
2022-10-29T08:23:13.229Z,1.05
2022-10-29T08:25:43.367Z,1.60
2022-10-29T08:28:12.781Z,1.48
2022-10-29T08:30:40.512Z,2.30
2022-10-29T08:33:07.759Z,1.90
2022-10-29T08:35:34.641Z,2.97
2022-10-29T08:38:01.439Z,1.33
2022-10-29T08:40:46.614Z,0.93
2022-10-29T08:43:22.280Z,2.60
2022-10-29T08:45:52.017Z,2.78
2022-10-29T08:48:33.609Z,2.15
2022-10-29T08:51:37.391Z,1.65
2022-10-29T08:54:29.337Z,1.35
2022-10-29T08:56:57.721Z,1.15
2022-10-29T08:59:26.473Z,1.70
2022-10-29T09:01:54.016Z,1.70
2022-10-29T09:04:35.441Z,1.98
2022-10-29T09:07:26.585Z,1.42
2022-10-29T09:10:16.947Z,3.35
2022-10-29T09:13:18.942Z,1.55
2022-10-29T09:15:57.543Z,3.10
2022-10-29T09:18:55.566Z,2.55
2022-10-29T09:21:52.548Z,2.85
2022-10-29T09:24:49.685Z,2.70
2022-10-29T09:27:35.337Z,2.42
2022-10-29T09:30:10.976Z,2.00
2022-10-29T09:32:59.393Z,2.42
2022-10-29T09:35:38.450Z,2.40
2022-10-29T09:38:30.468Z,2.35
2022-10-29T09:41:01.579Z,1.70
2022-10-29T09:43:28.148Z,1.60
2022-10-29T09:46:09.087Z,1.75
2022-10-29T09:48:55.168Z,2.03
2022-10-29T09:51:31.228Z,2.83
2022-10-29T09:53:57.928Z,2.53
2022-10-29T09:56:24.587Z,2.72
2022-10-29T09:58:57.086Z,3.92
2022-10-29T10:01:23.817Z,3.00
2022-10-29T10:03:56.237Z,2.45
2022-10-29T10:06:22.982Z,2.85
2022-10-29T10:09:00.719Z,2.35
2022-10-29T10:11:41.329Z,2.33
2022-10-29T10:14:20.903Z,2.90
2022-10-29T10:16:58.164Z,4.25
2022-10-29T10:19:27.498Z,4.68
2022-10-29T10:22:03.135Z,4.80
2022-10-29T10:24:33.185Z,7.55
2022-10-29T10:27:01.184Z,7.38
2022-10-29T10:29:28.468Z,8.65
2022-10-29T10:31:58.077Z,8.48
2022-10-29T10:34:26.935Z,6.93
2022-10-29T10:37:14.796Z,4.45
2022-10-29T10:39:44.841Z,5.10
2022-10-29T10:42:17.384Z,3.58
2022-10-29T10:44:57.952Z,3.22
2022-10-29T10:47:32.717Z,4.32
2022-10-29T10:50:25.596Z,3.20
2022-10-29T10:52:57.064Z,2.72
2022-10-29T10:55:30.892Z,1.80
2022-10-29T10:58:17.564Z,2.78
2022-10-29T11:00:50.447Z,3.88
2022-10-29T11:03:28.115Z,4.70
2022-10-29T11:06:08.634Z,3.67
2022-10-29T11:08:43.841Z,2.70
2022-10-29T11:11:13.329Z,3.40
2022-10-29T11:13:41.882Z,2.08
2022-10-29T11:16:44.779Z,1.60
2022-10-29T11:19:40.012Z,2.17
2022-10-29T11:22:27.833Z,2.80
2022-10-29T11:25:00.614Z,2.72
2022-10-29T11:27:43.105Z,2.50
2022-10-29T11:30:12.758Z,4.28
2022-10-29T11:33:13.003Z,3.25
2022-10-29T11:36:06.332Z,5.10
2022-10-29T11:38:49.098Z,4.85
2022-10-29T11:41:27.859Z,4.80
2022-10-29T11:43:54.879Z,4.28
2022-10-29T11:46:58.779Z,6.78
2022-10-29T11:49:43.801Z,5.50
2022-10-29T11:52:34.738Z,5.95
2022-10-29T11:55:11.504Z,6.57
2022-10-29T11:58:11.209Z,6.43
2022-10-29T12:01:09.324Z,6.25
2022-10-29T12:03:52.236Z,7.25
2022-10-29T12:06:33.348Z,8.82
2022-10-29T12:09:16.632Z,7.35
2022-10-29T12:12:12.869Z,9.02
2022-10-29T12:14:51.804Z,7.78
2022-10-29T12:17:36.135Z,9.95
2022-10-29T12:20:16.051Z,8.90
2022-10-29T12:23:05.877Z,8.85
2022-10-29T12:25:49.571Z,10.23
2022-10-29T12:28:21.640Z,7.20
2022-10-29T12:33:56.266Z,11.32
2022-10-29T12:36:41.562Z,7.45
2022-10-29T12:39:22.557Z,7.38
2022-10-29T12:41:52.061Z,6.53
2022-10-29T12:44:45.279Z,10.52
2022-10-29T12:47:23.979Z,6.18
2022-10-29T12:49:55.469Z,7.65
2022-10-29T12:52:41.506Z,6.80
2022-10-29T12:55:12.484Z,6.78
2022-10-29T12:57:39.634Z,5.10
2022-10-29T13:00:24.438Z,5.25
2022-10-29T13:02:53.860Z,6.07
2022-10-29T13:05:39.236Z,5.07
2022-10-29T13:08:05.792Z,6.90
2022-10-29T13:10:35.812Z,9.82
2022-10-29T13:13:15.629Z,6.03
2022-10-29T13:15:59.073Z,5.18
2022-10-29T13:18:47.005Z,6.22
2022-10-29T13:21:13.609Z,4.15
2022-10-29T13:23:40.732Z,4.13
2022-10-29T13:26:08.572Z,4.68
2022-10-29T13:28:37.968Z,6.43
2022-10-29T13:31:04.563Z,3.63
2022-10-29T13:33:31.089Z,3.25
2022-10-29T13:36:01.147Z,2.95
2022-10-29T13:38:46.919Z,3.45
2022-10-29T13:41:39.890Z,3.60
2022-10-29T13:44:25.115Z,3.67
2022-10-29T13:47:14.901Z,6.28
2022-10-29T13:49:45.367Z,4.47
2022-10-29T13:52:18.434Z,4.32
2022-10-29T13:54:52.431Z,6.00
2022-10-29T13:57:25.454Z,5.07
2022-10-29T14:00:01.825Z,4.57
2022-10-29T14:02:32.387Z,4.03
2022-10-29T14:05:18.472Z,4.32
2022-10-29T14:08:13.680Z,6.22
2022-10-29T14:10:40.222Z,4.43
2022-10-29T14:13:12.538Z,3.67
2022-10-29T14:15:39.978Z,5.30
2022-10-29T14:18:19.349Z,3.50
2022-10-29T14:20:57.945Z,3.55
2022-10-29T14:23:25.638Z,5.30
2022-10-29T14:25:57.566Z,4.95
2022-10-29T14:28:32.773Z,4.38
2022-10-29T14:31:06.945Z,6.15
2022-10-29T14:33:36.017Z,3.85
2022-10-29T14:36:20.762Z,4.70
2022-10-29T14:38:59.355Z,4.00
2022-10-29T14:41:28.799Z,3.47
2022-10-29T14:44:18.934Z,1.80
2022-10-29T14:47:05.784Z,2.35
2022-10-29T14:49:35.454Z,1.33
2022-10-29T14:52:17.488Z,1.58
2022-10-29T14:54:48.537Z,0.88
2022-10-29T14:57:18.032Z,0.90
2022-10-29T15:00:03.472Z,0.82
2022-10-29T15:02:38.598Z,1.23
2022-10-29T15:05:30.508Z,0.98
2022-10-29T15:08:14.942Z,1.30
2022-10-29T15:10:54.109Z,0.93
2022-10-29T15:13:40.968Z,1.30
2022-10-29T15:16:18.749Z,1.33
2022-10-29T15:18:49.529Z,2.47
2022-10-29T15:21:33.252Z,1.15
2022-10-29T15:24:06.562Z,1.55
2022-10-29T15:26:43.645Z,1.38
2022-10-29T15:29:12.092Z,1.45
2022-10-29T15:31:46.805Z,1.77
2022-10-29T15:34:21.713Z,1.40
2022-10-29T15:36:50.763Z,1.65
2022-10-29T15:40:05.836Z,1.52
2022-10-29T15:42:34.930Z,1.30
2022-10-29T15:45:07.758Z,1.45
2022-10-29T15:47:40.342Z,1.35
2022-10-29T15:50:11.568Z,1.80
2022-10-29T15:52:41.474Z,1.27
2022-10-29T15:55:23.442Z,1.70
2022-10-29T15:57:53.558Z,1.50
2022-10-29T16:00:23.203Z,2.05
2022-10-29T16:02:50.446Z,1.55
2022-10-29T16:05:18.107Z,2.00
2022-10-29T16:07:46.938Z,1.80
2022-10-29T16:10:21.490Z,3.25
2022-10-29T16:12:49.990Z,2.25
2022-10-29T16:15:19.774Z,1.17
2022-10-29T16:17:47.204Z,1.73
2022-10-29T16:20:19.096Z,1.10
2022-10-29T16:22:48.063Z,2.60
2022-10-29T16:25:24.162Z,1.20
2022-10-29T16:27:51.555Z,1.38
2022-10-29T16:30:19.342Z,1.30
2022-10-29T16:32:47.169Z,2.50
2022-10-29T16:35:23.446Z,1.00
2022-10-29T16:37:51.331Z,0.95
2022-10-29T16:40:19.468Z,0.90
2022-10-29T16:42:46.530Z,1.35
2022-10-29T16:45:20.577Z,0.95
2022-10-29T16:47:47.768Z,1.05
2022-10-29T16:50:20.332Z,1.48
2022-10-29T16:52:47.171Z,1.02
2022-10-29T16:55:14.390Z,1.25
2022-10-29T16:57:41.234Z,1.92
2022-10-29T17:00:08.629Z,1.45
2022-10-29T17:02:35.313Z,2.25
2022-10-29T17:05:02.069Z,1.02
2022-10-29T17:07:28.668Z,1.30
2022-10-29T17:09:55.331Z,1.20
2022-10-29T17:12:21.985Z,1.05
2022-10-29T17:14:48.631Z,1.20
2022-10-29T17:17:15.271Z,1.10
2022-10-29T17:19:41.886Z,1.25
2022-10-29T17:22:18.847Z,0.93
2022-10-29T17:24:45.830Z,1.10
2022-10-29T17:27:12.996Z,3.33
2022-10-29T17:29:39.694Z,1.17
2022-10-29T17:32:07.872Z,0.98
2022-10-29T17:34:35.939Z,1.15
2022-10-29T17:37:02.829Z,1.83
2022-10-29T17:39:29.501Z,7.45
2022-10-29T17:41:56.201Z,3.13
2022-10-29T17:44:22.854Z,1.70
2022-10-29T17:46:49.511Z,1.48
2022-10-29T17:49:16.231Z,2.65
2022-10-29T17:51:42.847Z,2.13
2022-10-29T17:54:12.532Z,2.80
2022-10-29T17:56:39.128Z,2.10
2022-10-29T17:59:05.801Z,1.38
2022-10-29T18:01:32.632Z,1.90
2022-10-29T18:04:03.497Z,1.38
2022-10-29T18:06:30.502Z,1.55
2022-10-29T18:08:57.380Z,2.10
2022-10-29T18:11:25.349Z,6.28
2022-10-29T18:13:52.613Z,3.22
2022-10-29T18:16:21.509Z,12.95
2022-10-29T18:19:01.326Z,9.63
2022-10-29T18:21:28.658Z,3.42
2022-10-29T18:23:55.252Z,4.88
2022-10-29T18:26:28.562Z,4.18
2022-10-29T18:28:55.965Z,4.22
2022-10-29T18:31:25.319Z,3.00
2022-10-29T18:33:52.011Z,5.28
2022-10-29T18:36:23.107Z,3.80
2022-10-29T18:38:51.362Z,2.35
2022-10-29T18:41:18.575Z,6.30
2022-10-29T18:43:45.247Z,3.40
2022-10-29T18:46:12.209Z,3.03
2022-10-29T18:48:41.005Z,2.35
2022-10-29T18:51:12.916Z,4.80
2022-10-29T18:53:39.957Z,7.75
2022-10-29T18:56:12.278Z,4.53
2022-10-29T18:58:39.328Z,4.88
2022-10-29T19:01:08.595Z,2.55
2022-10-29T19:03:36.351Z,3.67
2022-10-29T19:06:07.487Z,2.85
2022-10-29T19:08:40.638Z,2.50
2022-10-29T19:11:10.313Z,2.47
2022-10-29T19:13:37.073Z,1.98
2022-10-29T19:16:06.509Z,1.90
2022-10-29T19:18:33.986Z,3.13
2022-10-29T19:21:06.262Z,2.70
2022-10-29T19:23:33.467Z,3.22
2022-10-29T19:26:10.727Z,4.13
2022-10-29T19:28:38.255Z,2.40
2022-10-29T19:31:09.381Z,2.13
2022-10-29T19:33:36.972Z,2.30
2022-10-29T19:36:05.680Z,2.22
2022-10-29T19:38:32.748Z,1.83
2022-10-29T19:40:59.951Z,1.90
2022-10-29T19:43:29.142Z,2.50
2022-10-29T19:45:56.487Z,2.65
2022-10-29T19:48:23.500Z,3.33
2022-10-29T19:50:55.154Z,2.85
2022-10-29T19:53:23.540Z,1.65
2022-10-29T19:55:50.576Z,1.67
2022-10-29T19:58:22.044Z,2.17
2022-10-29T20:00:49.192Z,2.30
2022-10-29T20:03:16.949Z,2.55
2022-10-29T20:05:45.263Z,1.60
2022-10-29T20:08:15.801Z,1.92
2022-10-29T20:10:43.396Z,1.40
2022-10-29T20:13:10.216Z,2.67
2022-10-29T20:15:44.737Z,2.30
2022-10-29T20:18:11.553Z,2.35
2022-10-29T20:20:38.159Z,2.15
2022-10-29T20:23:05.095Z,2.35
2022-10-29T20:25:31.699Z,2.45
2022-10-29T20:27:59.505Z,2.50
2022-10-29T20:30:26.123Z,2.03
2022-10-29T20:32:52.709Z,2.75
2022-10-29T20:35:19.415Z,2.92
2022-10-29T20:37:46.042Z,2.72
2022-10-29T20:40:13.202Z,3.83
2022-10-29T20:42:39.877Z,3.60
2022-10-29T20:45:07.289Z,3.78
2022-10-29T20:47:33.986Z,2.35
2022-10-29T20:50:00.666Z,2.45
2022-10-29T20:52:27.836Z,2.72
2022-10-29T20:54:54.460Z,2.65
2022-10-29T20:57:21.175Z,3.25
2022-10-29T20:59:47.702Z,3.17
2022-10-29T21:02:14.794Z,2.38
2022-10-29T21:04:41.585Z,2.67
2022-10-29T21:07:08.288Z,4.07
2022-10-29T21:09:34.988Z,4.85
2022-10-29T21:12:01.849Z,5.47
2022-10-29T21:14:29.708Z,3.63
2022-10-29T21:16:56.604Z,3.42
2022-10-29T21:19:24.122Z,2.92
2022-10-29T21:21:50.766Z,2.92
2022-10-29T21:24:20.278Z,2.50
2022-10-29T21:26:47.096Z,2.70
2022-10-29T21:29:13.763Z,2.78
2022-10-29T21:31:40.556Z,2.72
2022-10-29T21:34:07.251Z,2.97
2022-10-29T21:36:33.863Z,4.80
2022-10-29T21:39:00.464Z,2.90
2022-10-29T21:41:27.106Z,2.45
2022-10-29T21:43:53.763Z,3.53
2022-10-29T21:46:20.438Z,3.38
2022-10-29T21:48:47.102Z,4.88
2022-10-29T21:51:16.216Z,3.08
2022-10-29T21:53:43.222Z,4.05
2022-10-29T21:56:12.586Z,3.08
2022-10-29T21:58:39.151Z,2.80
2022-10-29T22:01:09.273Z,3.00
2022-10-29T22:03:37.667Z,3.63
2022-10-29T22:06:14.273Z,3.17
2022-10-29T22:08:41.156Z,3.53
2022-10-29T22:11:08.714Z,3.25
2022-10-29T22:13:36.082Z,4.47
2022-10-29T22:16:04.287Z,5.53
2022-10-29T22:18:32.164Z,4.40
2022-10-29T22:21:06.080Z,4.72
2022-10-29T22:23:32.909Z,5.53
2022-10-29T22:25:59.859Z,3.50
2022-10-29T22:28:26.498Z,3.22
2022-10-29T22:31:01.130Z,3.63
2022-10-29T22:33:29.113Z,3.17
2022-10-29T22:35:56.084Z,2.70
2022-10-29T22:38:22.766Z,2.95
2022-10-29T22:40:49.392Z,3.45
2022-10-29T22:43:16.242Z,3.05
2022-10-29T22:45:45.209Z,3.65
2022-10-29T22:48:12.058Z,3.00
2022-10-29T22:50:38.673Z,2.90
2022-10-29T22:53:05.325Z,2.88
2022-10-29T22:55:31.961Z,3.30
2022-10-29T22:57:58.568Z,2.55
2022-10-29T23:00:25.208Z,2.15
2022-10-29T23:02:52.101Z,1.67
2022-10-29T23:05:18.721Z,1.58
2022-10-29T23:07:45.353Z,2.25
2022-10-29T23:10:11.998Z,1.73
2022-10-29T23:12:38.717Z,1.35
2022-10-29T23:15:06.044Z,1.63
2022-10-29T23:17:32.707Z,3.40
2022-10-29T23:19:59.385Z,2.17
2022-10-29T23:22:27.610Z,3.38
2022-10-29T23:24:54.957Z,1.98
2022-10-29T23:27:21.602Z,2.50
2022-10-29T23:29:48.327Z,1.35
2022-10-29T23:32:14.920Z,2.22
2022-10-29T23:34:41.509Z,2.33
2022-10-29T23:37:09.977Z,2.63
2022-10-29T23:39:38.013Z,2.47
2022-10-29T23:42:04.706Z,2.67
2022-10-29T23:44:31.320Z,2.60
2022-10-29T23:46:58.006Z,3.20
2022-10-29T23:49:24.741Z,2.03
2022-10-29T23:51:51.337Z,1.90
2022-10-29T23:54:17.909Z,2.17
2022-10-29T23:56:44.547Z,4.32
2022-10-29T23:59:11.162Z,2.30
